sensor_id;sensor_type;location;lat;lon;timestamp;P1;durP1;ratioP1;P2;durP2;ratioP2
76640;SDS011;65538;50.798;6.064;2023-10-08T00:01:28;7.88;;;3.15;;
76640;SDS011;65538;50.798;6.064;2023-10-08T00:03:54;8.95;;;2.97;;
76640;SDS011;65538;50.798;6.064;2023-10-08T00:06:24;11.45;;;3.30;;
76640;SDS011;65538;50.798;6.064;2023-10-08T00:08:50;6.97;;;3.33;;
76640;SDS011;65538;50.798;6.064;2023-10-08T00:11:18;6.82;;;3.20;;
76640;SDS011;65538;50.798;6.064;2023-10-08T00:13:44;7.53;;;3.25;;
76640;SDS011;65538;50.798;6.064;2023-10-08T00:16:09;8.70;;;3.95;;
76640;SDS011;65538;50.798;6.064;2023-10-08T00:18:35;8.57;;;3.35;;
76640;SDS011;65538;50.798;6.064;2023-10-08T00:21:02;7.65;;;2.88;;
76640;SDS011;65538;50.798;6.064;2023-10-08T00:23:36;10.05;;;3.60;;
76640;SDS011;65538;50.798;6.064;2023-10-08T00:26:07;10.23;;;3.78;;
76640;SDS011;65538;50.798;6.064;2023-10-08T00:28:32;8.23;;;3.78;;
76640;SDS011;65538;50.798;6.064;2023-10-08T00:30:58;8.33;;;3.10;;
76640;SDS011;65538;50.798;6.064;2023-10-08T00:33:30;10.70;;;3.42;;
76640;SDS011;65538;50.798;6.064;2023-10-08T00:35:55;7.40;;;2.70;;
76640;SDS011;65538;50.798;6.064;2023-10-08T00:38:21;6.00;;;2.90;;
76640;SDS011;65538;50.798;6.064;2023-10-08T00:40:46;6.53;;;3.07;;
76640;SDS011;65538;50.798;6.064;2023-10-08T00:45:59;6.60;;;3.45;;
76640;SDS011;65538;50.798;6.064;2023-10-08T00:48:25;7.13;;;3.08;;
76640;SDS011;65538;50.798;6.064;2023-10-08T00:50:55;8.48;;;3.03;;
76640;SDS011;65538;50.798;6.064;2023-10-08T00:53:34;7.70;;;3.65;;
76640;SDS011;65538;50.798;6.064;2023-10-08T00:56:04;8.95;;;3.20;;
76640;SDS011;65538;50.798;6.064;2023-10-08T00:58:37;5.85;;;2.92;;
76640;SDS011;65538;50.798;6.064;2023-10-08T01:01:03;7.93;;;3.83;;
76640;SDS011;65538;50.798;6.064;2023-10-08T01:03:35;9.40;;;2.80;;
76640;SDS011;65538;50.798;6.064;2023-10-08T01:06:01;7.45;;;2.55;;
76640;SDS011;65538;50.798;6.064;2023-10-08T01:08:28;10.95;;;3.15;;
76640;SDS011;65538;50.798;6.064;2023-10-08T01:11:21;7.15;;;3.10;;
76640;SDS011;65538;50.798;6.064;2023-10-08T01:13:58;9.02;;;3.33;;
76640;SDS011;65538;50.798;6.064;2023-10-08T01:16:24;8.15;;;3.13;;
76640;SDS011;65538;50.798;6.064;2023-10-08T01:18:51;8.35;;;3.00;;
76640;SDS011;65538;50.798;6.064;2023-10-08T01:21:19;7.15;;;2.92;;
76640;SDS011;65538;50.798;6.064;2023-10-08T01:23:58;7.60;;;3.20;;
76640;SDS011;65538;50.798;6.064;2023-10-08T01:26:26;8.25;;;3.88;;
76640;SDS011;65538;50.798;6.064;2023-10-08T01:28:54;7.20;;;3.13;;
76640;SDS011;65538;50.798;6.064;2023-10-08T01:31:19;8.03;;;3.10;;
76640;SDS011;65538;50.798;6.064;2023-10-08T01:33:44;5.93;;;3.00;;
76640;SDS011;65538;50.798;6.064;2023-10-08T01:36:15;6.78;;;2.85;;
76640;SDS011;65538;50.798;6.064;2023-10-08T01:38:40;7.40;;;2.88;;
76640;SDS011;65538;50.798;6.064;2023-10-08T01:41:13;9.65;;;2.85;;
76640;SDS011;65538;50.798;6.064;2023-10-08T01:43:48;7.88;;;3.20;;
76640;SDS011;65538;50.798;6.064;2023-10-08T01:46:15;9.05;;;3.20;;
76640;SDS011;65538;50.798;6.064;2023-10-08T01:48:41;8.15;;;2.95;;
76640;SDS011;65538;50.798;6.064;2023-10-08T01:51:09;6.03;;;3.05;;
76640;SDS011;65538;50.798;6.064;2023-10-08T01:53:37;8.25;;;2.83;;
76640;SDS011;65538;50.798;6.064;2023-10-08T01:56:03;7.90;;;2.55;;
76640;SDS011;65538;50.798;6.064;2023-10-08T01:58:29;7.47;;;3.60;;
76640;SDS011;65538;50.798;6.064;2023-10-08T02:00:54;10.05;;;3.45;;
76640;SDS011;65538;50.798;6.064;2023-10-08T02:03:24;8.10;;;3.47;;
76640;SDS011;65538;50.798;6.064;2023-10-08T02:05:49;11.73;;;3.50;;
76640;SDS011;65538;50.798;6.064;2023-10-08T02:08:18;6.18;;;2.40;;
76640;SDS011;65538;50.798;6.064;2023-10-08T02:10:44;7.30;;;2.80;;
76640;SDS011;65538;50.798;6.064;2023-10-08T02:13:12;8.55;;;3.35;;
76640;SDS011;65538;50.798;6.064;2023-10-08T02:15:43;7.88;;;3.28;;
76640;SDS011;65538;50.798;6.064;2023-10-08T02:18:08;7.85;;;3.35;;
76640;SDS011;65538;50.798;6.064;2023-10-08T02:20:33;9.03;;;3.40;;
76640;SDS011;65538;50.798;6.064;2023-10-08T02:22:58;5.97;;;3.10;;
76640;SDS011;65538;50.798;6.064;2023-10-08T02:25:25;10.48;;;3.63;;
76640;SDS011;65538;50.798;6.064;2023-10-08T02:27:50;7.10;;;3.00;;
76640;SDS011;65538;50.798;6.064;2023-10-08T02:30:15;7.87;;;3.47;;
76640;SDS011;65538;50.798;6.064;2023-10-08T02:32:40;6.37;;;3.10;;
76640;SDS011;65538;50.798;6.064;2023-10-08T02:35:09;10.70;;;3.30;;
76640;SDS011;65538;50.798;6.064;2023-10-08T02:37:36;8.38;;;3.30;;
76640;SDS011;65538;50.798;6.064;2023-10-08T02:40:04;7.57;;;3.20;;
76640;SDS011;65538;50.798;6.064;2023-10-08T02:42:38;8.75;;;2.95;;
76640;SDS011;65538;50.798;6.064;2023-10-08T02:45:03;9.73;;;3.43;;
76640;SDS011;65538;50.798;6.064;2023-10-08T02:47:28;7.97;;;3.00;;
76640;SDS011;65538;50.798;6.064;2023-10-08T02:49:54;6.03;;;2.80;;
76640;SDS011;65538;50.798;6.064;2023-10-08T02:52:19;9.83;;;3.10;;
76640;SDS011;65538;50.798;6.064;2023-10-08T02:54:45;6.85;;;2.75;;
76640;SDS011;65538;50.798;6.064;2023-10-08T02:57:10;9.57;;;3.33;;
76640;SDS011;65538;50.798;6.064;2023-10-08T02:59:39;11.20;;;3.95;;
76640;SDS011;65538;50.798;6.064;2023-10-08T03:02:09;8.65;;;3.15;;
76640;SDS011;65538;50.798;6.064;2023-10-08T03:04:42;10.52;;;3.55;;
76640;SDS011;65538;50.798;6.064;2023-10-08T03:07:10;6.50;;;2.75;;
76640;SDS011;65538;50.798;6.064;2023-10-08T03:09:45;9.23;;;3.65;;
76640;SDS011;65538;50.798;6.064;2023-10-08T03:12:11;9.60;;;3.57;;
76640;SDS011;65538;50.798;6.064;2023-10-08T03:14:36;7.40;;;3.03;;
76640;SDS011;65538;50.798;6.064;2023-10-08T03:17:14;8.25;;;3.10;;
76640;SDS011;65538;50.798;6.064;2023-10-08T03:19:45;7.75;;;3.63;;
76640;SDS011;65538;50.798;6.064;2023-10-08T03:22:10;5.80;;;3.13;;
76640;SDS011;65538;50.798;6.064;2023-10-08T03:24:35;6.07;;;2.63;;
76640;SDS011;65538;50.798;6.064;2023-10-08T03:27:01;12.03;;;3.53;;
76640;SDS011;65538;50.798;6.064;2023-10-08T03:29:36;9.73;;;3.42;;
76640;SDS011;65538;50.798;6.064;2023-10-08T03:32:08;10.80;;;3.17;;
76640;SDS011;65538;50.798;6.064;2023-10-08T03:34:38;10.77;;;3.22;;
76640;SDS011;65538;50.798;6.064;2023-10-08T03:37:07;9.13;;;3.65;;
76640;SDS011;65538;50.798;6.064;2023-10-08T03:39:33;7.10;;;3.10;;
76640;SDS011;65538;50.798;6.064;2023-10-08T03:42:20;8.07;;;3.40;;
76640;SDS011;65538;50.798;6.064;2023-10-08T03:44:45;5.22;;;2.83;;
76640;SDS011;65538;50.798;6.064;2023-10-08T03:47:15;8.65;;;3.15;;
76640;SDS011;65538;50.798;6.064;2023-10-08T03:49:43;8.77;;;3.65;;
76640;SDS011;65538;50.798;6.064;2023-10-08T03:52:10;8.07;;;3.33;;
76640;SDS011;65538;50.798;6.064;2023-10-08T03:54:35;7.82;;;3.08;;
76640;SDS011;65538;50.798;6.064;2023-10-08T03:57:01;8.93;;;3.40;;
76640;SDS011;65538;50.798;6.064;2023-10-08T03:59:29;11.40;;;3.70;;
76640;SDS011;65538;50.798;6.064;2023-10-08T04:01:54;11.90;;;3.50;;
76640;SDS011;65538;50.798;6.064;2023-10-08T04:04:22;6.43;;;2.85;;
76640;SDS011;65538;50.798;6.064;2023-10-08T04:06:55;9.05;;;3.40;;
76640;SDS011;65538;50.798;6.064;2023-10-08T04:09:38;7.60;;;3.08;;
76640;SDS011;65538;50.798;6.064;2023-10-08T04:12:04;9.27;;;3.22;;
76640;SDS011;65538;50.798;6.064;2023-10-08T04:14:35;7.55;;;3.40;;
76640;SDS011;65538;50.798;6.064;2023-10-08T04:17:01;8.83;;;3.50;;
76640;SDS011;65538;50.798;6.064;2023-10-08T04:19:26;9.07;;;3.00;;
76640;SDS011;65538;50.798;6.064;2023-10-08T04:21:54;9.77;;;3.85;;
76640;SDS011;65538;50.798;6.064;2023-10-08T04:24:20;8.53;;;3.50;;
76640;SDS011;65538;50.798;6.064;2023-10-08T04:26:45;8.00;;;3.08;;
76640;SDS011;65538;50.798;6.064;2023-10-08T04:29:11;6.83;;;3.03;;
76640;SDS011;65538;50.798;6.064;2023-10-08T04:31:41;8.68;;;3.13;;
76640;SDS011;65538;50.798;6.064;2023-10-08T04:34:11;7.75;;;3.00;;
76640;SDS011;65538;50.798;6.064;2023-10-08T04:36:57;9.15;;;3.80;;
76640;SDS011;65538;50.798;6.064;2023-10-08T04:39:26;6.85;;;2.97;;
76640;SDS011;65538;50.798;6.064;2023-10-08T04:41:56;8.05;;;3.30;;
76640;SDS011;65538;50.798;6.064;2023-10-08T04:44:24;7.47;;;3.13;;
76640;SDS011;65538;50.798;6.064;2023-10-08T04:46:53;8.60;;;2.85;;
76640;SDS011;65538;50.798;6.064;2023-10-08T04:49:19;7.20;;;3.17;;
76640;SDS011;65538;50.798;6.064;2023-10-08T04:51:50;7.15;;;3.50;;
76640;SDS011;65538;50.798;6.064;2023-10-08T04:54:17;9.38;;;3.15;;
76640;SDS011;65538;50.798;6.064;2023-10-08T04:56:43;10.48;;;3.50;;
76640;SDS011;65538;50.798;6.064;2023-10-08T04:59:08;10.45;;;4.50;;
76640;SDS011;65538;50.798;6.064;2023-10-08T05:01:36;6.47;;;3.10;;
76640;SDS011;65538;50.798;6.064;2023-10-08T05:04:24;8.50;;;3.20;;
76640;SDS011;65538;50.798;6.064;2023-10-08T05:06:58;7.25;;;3.00;;
76640;SDS011;65538;50.798;6.064;2023-10-08T05:09:26;9.20;;;3.42;;
76640;SDS011;65538;50.798;6.064;2023-10-08T05:12:04;11.60;;;3.47;;
76640;SDS011;65538;50.798;6.064;2023-10-08T05:14:48;7.15;;;2.70;;
76640;SDS011;65538;50.798;6.064;2023-10-08T05:17:32;7.57;;;3.10;;
76640;SDS011;65538;50.798;6.064;2023-10-08T05:20:10;9.65;;;3.42;;
76640;SDS011;65538;50.798;6.064;2023-10-08T05:23:09;9.48;;;3.30;;
76640;SDS011;65538;50.798;6.064;2023-10-08T05:26:06;9.45;;;2.90;;
76640;SDS011;65538;50.798;6.064;2023-10-08T05:28:35;7.87;;;3.40;;
76640;SDS011;65538;50.798;6.064;2023-10-08T05:31:19;12.57;;;3.50;;
76640;SDS011;65538;50.798;6.064;2023-10-08T05:34:01;6.93;;;3.10;;
76640;SDS011;65538;50.798;6.064;2023-10-08T05:36:45;11.25;;;4.03;;
76640;SDS011;65538;50.798;6.064;2023-10-08T05:39:37;8.75;;;3.17;;
76640;SDS011;65538;50.798;6.064;2023-10-08T05:42:06;9.40;;;3.78;;
76640;SDS011;65538;50.798;6.064;2023-10-08T05:44:56;9.80;;;3.90;;
76640;SDS011;65538;50.798;6.064;2023-10-08T05:47:39;11.77;;;3.42;;
76640;SDS011;65538;50.798;6.064;2023-10-08T05:50:06;10.68;;;3.30;;
76640;SDS011;65538;50.798;6.064;2023-10-08T05:52:44;8.77;;;3.30;;
76640;SDS011;65538;50.798;6.064;2023-10-08T05:55:30;10.43;;;3.47;;
76640;SDS011;65538;50.798;6.064;2023-10-08T05:58:03;9.10;;;3.45;;
76640;SDS011;65538;50.798;6.064;2023-10-08T06:00:44;8.77;;;3.58;;
76640;SDS011;65538;50.798;6.064;2023-10-08T06:03:16;8.65;;;3.60;;
76640;SDS011;65538;50.798;6.064;2023-10-08T06:06:00;12.20;;;3.78;;
76640;SDS011;65538;50.798;6.064;2023-10-08T06:08:40;9.93;;;3.90;;
76640;SDS011;65538;50.798;6.064;2023-10-08T06:11:33;9.82;;;3.72;;
76640;SDS011;65538;50.798;6.064;2023-10-08T06:14:21;12.23;;;3.65;;
76640;SDS011;65538;50.798;6.064;2023-10-08T06:17:05;10.07;;;3.47;;
76640;SDS011;65538;50.798;6.064;2023-10-08T06:19:51;11.60;;;3.83;;
76640;SDS011;65538;50.798;6.064;2023-10-08T06:22:17;11.00;;;3.60;;
76640;SDS011;65538;50.798;6.064;2023-10-08T06:24:44;13.18;;;3.80;;
76640;SDS011;65538;50.798;6.064;2023-10-08T06:27:09;9.95;;;3.58;;
76640;SDS011;65538;50.798;6.064;2023-10-08T06:29:34;10.60;;;3.80;;
76640;SDS011;65538;50.798;6.064;2023-10-08T06:32:00;11.35;;;4.30;;
76640;SDS011;65538;50.798;6.064;2023-10-08T06:34:27;10.15;;;3.15;;
76640;SDS011;65538;50.798;6.064;2023-10-08T06:36:53;11.45;;;4.65;;
76640;SDS011;65538;50.798;6.064;2023-10-08T06:39:23;8.98;;;3.65;;
76640;SDS011;65538;50.798;6.064;2023-10-08T06:41:58;11.35;;;3.75;;
76640;SDS011;65538;50.798;6.064;2023-10-08T06:44:23;9.05;;;3.88;;
76640;SDS011;65538;50.798;6.064;2023-10-08T06:46:49;9.05;;;3.17;;
76640;SDS011;65538;50.798;6.064;2023-10-08T06:49:20;8.07;;;3.20;;
76640;SDS011;65538;50.798;6.064;2023-10-08T06:51:48;10.68;;;3.58;;
76640;SDS011;65538;50.798;6.064;2023-10-08T06:54:25;11.05;;;3.60;;
76640;SDS011;65538;50.798;6.064;2023-10-08T06:56:55;11.00;;;3.97;;
76640;SDS011;65538;50.798;6.064;2023-10-08T06:59:20;10.17;;;3.73;;
76640;SDS011;65538;50.798;6.064;2023-10-08T07:01:50;13.82;;;4.93;;
76640;SDS011;65538;50.798;6.064;2023-10-08T07:04:16;11.32;;;4.05;;
76640;SDS011;65538;50.798;6.064;2023-10-08T07:06:43;10.07;;;3.80;;
76640;SDS011;65538;50.798;6.064;2023-10-08T07:09:10;8.63;;;3.47;;
76640;SDS011;65538;50.798;6.064;2023-10-08T07:11:50;12.45;;;3.83;;
76640;SDS011;65538;50.798;6.064;2023-10-08T07:14:20;7.47;;;2.95;;
76640;SDS011;65538;50.798;6.064;2023-10-08T07:16:45;7.85;;;3.22;;
76640;SDS011;65538;50.798;6.064;2023-10-08T07:43:41;8.30;;;3.67;;
76640;SDS011;65538;50.798;6.064;2023-10-08T07:49:15;11.18;;;4.03;;
76640;SDS011;65538;50.798;6.064;2023-10-08T07:51:42;13.52;;;4.07;;
76640;SDS011;65538;50.798;6.064;2023-10-08T07:54:16;10.18;;;3.78;;
76640;SDS011;65538;50.798;6.064;2023-10-08T08:03:30;12.10;;;4.70;;
76640;SDS011;65538;50.798;6.064;2023-10-08T08:06:16;9.20;;;3.72;;
76640;SDS011;65538;50.798;6.064;2023-10-08T08:14:54;7.32;;;3.70;;
76640;SDS011;65538;50.798;6.064;2023-10-08T08:33:10;12.50;;;5.13;;
76640;SDS011;65538;50.798;6.064;2023-10-08T08:35:56;12.10;;;3.95;;
76640;SDS011;65538;50.798;6.064;2023-10-08T08:38:24;8.80;;;3.50;;
76640;SDS011;65538;50.798;6.064;2023-10-08T08:43:40;11.13;;;4.57;;
76640;SDS011;65538;50.798;6.064;2023-10-08T08:46:30;10.23;;;3.90;;
76640;SDS011;65538;50.798;6.064;2023-10-08T08:48:57;15.50;;;5.22;;
76640;SDS011;65538;50.798;6.064;2023-10-08T08:54:57;12.48;;;4.57;;
76640;SDS011;65538;50.798;6.064;2023-10-08T08:57:36;14.05;;;4.10;;
76640;SDS011;65538;50.798;6.064;2023-10-08T09:02:58;11.00;;;4.38;;
76640;SDS011;65538;50.798;6.064;2023-10-08T09:08:39;12.57;;;4.90;;
76640;SDS011;65538;50.798;6.064;2023-10-08T09:42:27;13.85;;;6.10;;
76640;SDS011;65538;50.798;6.064;2023-10-08T09:44:54;15.75;;;5.80;;
76640;SDS011;65538;50.798;6.064;2023-10-08T09:47:21;14.23;;;5.20;;
76640;SDS011;65538;50.798;6.064;2023-10-08T09:49:56;13.65;;;4.97;;
76640;SDS011;65538;50.798;6.064;2023-10-08T09:52:23;13.88;;;5.80;;
76640;SDS011;65538;50.798;6.064;2023-10-08T09:54:49;13.38;;;5.60;;
76640;SDS011;65538;50.798;6.064;2023-10-08T09:57:16;15.32;;;6.00;;
76640;SDS011;65538;50.798;6.064;2023-10-08T09:59:43;13.90;;;5.15;;
76640;SDS011;65538;50.798;6.064;2023-10-08T10:02:09;13.88;;;5.30;;
76640;SDS011;65538;50.798;6.064;2023-10-08T10:04:35;11.43;;;4.88;;
76640;SDS011;65538;50.798;6.064;2023-10-08T10:07:09;13.77;;;5.32;;
76640;SDS011;65538;50.798;6.064;2023-10-08T10:09:34;14.82;;;4.95;;
76640;SDS011;65538;50.798;6.064;2023-10-08T10:12:01;15.40;;;6.10;;
76640;SDS011;65538;50.798;6.064;2023-10-08T10:14:44;16.25;;;6.15;;
76640;SDS011;65538;50.798;6.064;2023-10-08T10:19:39;16.05;;;5.38;;
76640;SDS011;65538;50.798;6.064;2023-10-08T10:25:33;14.65;;;6.60;;
76640;SDS011;65538;50.798;6.064;2023-10-08T10:28:22;16.55;;;5.80;;
76640;SDS011;65538;50.798;6.064;2023-10-08T10:30:58;17.27;;;6.20;;
76640;SDS011;65538;50.798;6.064;2023-10-08T10:33:31;12.00;;;6.28;;
76640;SDS011;65538;50.798;6.064;2023-10-08T10:35:56;14.73;;;6.00;;
76640;SDS011;65538;50.798;6.064;2023-10-08T10:38:22;13.50;;;5.67;;
76640;SDS011;65538;50.798;6.064;2023-10-08T10:40:51;11.43;;;5.72;;
76640;SDS011;65538;50.798;6.064;2023-10-08T10:43:26;15.25;;;7.22;;
76640;SDS011;65538;50.798;6.064;2023-10-08T10:45:59;16.10;;;5.95;;
76640;SDS011;65538;50.798;6.064;2023-10-08T10:48:25;15.55;;;6.13;;
76640;SDS011;65538;50.798;6.064;2023-10-08T10:50:59;14.95;;;5.80;;
76640;SDS011;65538;50.798;6.064;2023-10-08T10:53:37;13.85;;;5.70;;
76640;SDS011;65538;50.798;6.064;2023-10-08T10:56:26;13.75;;;5.30;;
76640;SDS011;65538;50.798;6.064;2023-10-08T10:58:59;14.55;;;6.68;;
76640;SDS011;65538;50.798;6.064;2023-10-08T11:01:28;16.13;;;6.35;;
76640;SDS011;65538;50.798;6.064;2023-10-08T11:03:55;14.07;;;6.95;;
76640;SDS011;65538;50.798;6.064;2023-10-08T11:06:28;15.32;;;6.57;;
76640;SDS011;65538;50.798;6.064;2023-10-08T11:09:12;13.98;;;6.65;;
76640;SDS011;65538;50.798;6.064;2023-10-08T11:12:01;15.07;;;6.00;;
76640;SDS011;65538;50.798;6.064;2023-10-08T11:14:27;13.73;;;5.97;;
76640;SDS011;65538;50.798;6.064;2023-10-08T11:20:30;12.77;;;6.53;;
76640;SDS011;65538;50.798;6.064;2023-10-08T11:22:59;14.57;;;5.65;;
76640;SDS011;65538;50.798;6.064;2023-10-08T11:25:58;13.43;;;5.75;;
76640;SDS011;65538;50.798;6.064;2023-10-08T11:28:27;14.25;;;6.55;;
76640;SDS011;65538;50.798;6.064;2023-10-08T11:30:52;13.02;;;5.60;;
76640;SDS011;65538;50.798;6.064;2023-10-08T11:33:18;13.15;;;5.82;;
76640;SDS011;65538;50.798;6.064;2023-10-08T11:38:47;15.20;;;5.35;;
76640;SDS011;65538;50.798;6.064;2023-10-08T11:41:18;10.65;;;4.90;;
76640;SDS011;65538;50.798;6.064;2023-10-08T11:43:53;13.20;;;5.88;;
76640;SDS011;65538;50.798;6.064;2023-10-08T11:46:25;15.98;;;5.97;;
76640;SDS011;65538;50.798;6.064;2023-10-08T11:51:53;12.18;;;5.82;;
76640;SDS011;65538;50.798;6.064;2023-10-08T11:57:31;14.65;;;6.55;;
76640;SDS011;65538;50.798;6.064;2023-10-08T12:00:31;13.65;;;5.80;;
76640;SDS011;65538;50.798;6.064;2023-10-08T12:03:06;19.30;;;5.78;;
76640;SDS011;65538;50.798;6.064;2023-10-08T12:05:32;17.95;;;7.13;;
76640;SDS011;65538;50.798;6.064;2023-10-08T12:07:59;14.32;;;5.70;;
76640;SDS011;65538;50.798;6.064;2023-10-08T12:10:27;15.52;;;5.55;;
76640;SDS011;65538;50.798;6.064;2023-10-08T12:12:56;12.32;;;5.57;;
76640;SDS011;65538;50.798;6.064;2023-10-08T12:17:59;14.20;;;5.53;;
76640;SDS011;65538;50.798;6.064;2023-10-08T12:20:34;17.25;;;5.85;;
76640;SDS011;65538;50.798;6.064;2023-10-08T12:23:01;14.02;;;6.82;;
76640;SDS011;65538;50.798;6.064;2023-10-08T12:25:27;12.50;;;5.95;;
76640;SDS011;65538;50.798;6.064;2023-10-08T12:27:52;11.97;;;5.20;;
76640;SDS011;65538;50.798;6.064;2023-10-08T12:30:23;13.48;;;5.78;;
76640;SDS011;65538;50.798;6.064;2023-10-08T12:33:16;10.23;;;5.05;;
76640;SDS011;65538;50.798;6.064;2023-10-08T12:35:42;14.43;;;5.30;;
76640;SDS011;65538;50.798;6.064;2023-10-08T12:38:08;10.57;;;5.22;;
76640;SDS011;65538;50.798;6.064;2023-10-08T12:40:34;13.82;;;5.13;;
76640;SDS011;65538;50.798;6.064;2023-10-08T12:43:16;12.73;;;5.07;;
76640;SDS011;65538;50.798;6.064;2023-10-08T12:45:45;14.75;;;5.78;;
76640;SDS011;65538;50.798;6.064;2023-10-08T12:48:10;13.73;;;6.10;;
76640;SDS011;65538;50.798;6.064;2023-10-08T12:50:39;15.68;;;5.82;;
76640;SDS011;65538;50.798;6.064;2023-10-08T12:53:19;13.43;;;5.45;;
76640;SDS011;65538;50.798;6.064;2023-10-08T12:55:45;12.93;;;5.85;;
76640;SDS011;65538;50.798;6.064;2023-10-08T12:58:11;16.23;;;5.20;;
76640;SDS011;65538;50.798;6.064;2023-10-08T13:00:57;12.65;;;5.10;;
76640;SDS011;65538;50.798;6.064;2023-10-08T13:03:31;11.90;;;5.53;;
76640;SDS011;65538;50.798;6.064;2023-10-08T13:05:58;14.90;;;5.85;;
76640;SDS011;65538;50.798;6.064;2023-10-08T13:08:32;15.18;;;5.63;;
76640;SDS011;65538;50.798;6.064;2023-10-08T13:11:00;13.85;;;5.22;;
76640;SDS011;65538;50.798;6.064;2023-10-08T13:13:35;13.07;;;4.68;;
76640;SDS011;65538;50.798;6.064;2023-10-08T13:16:01;13.88;;;5.65;;
76640;SDS011;65538;50.798;6.064;2023-10-08T13:18:32;15.02;;;5.57;;
76640;SDS011;65538;50.798;6.064;2023-10-08T13:20:58;12.10;;;5.03;;
76640;SDS011;65538;50.798;6.064;2023-10-08T13:23:23;10.70;;;4.77;;
76640;SDS011;65538;50.798;6.064;2023-10-08T13:25:51;14.52;;;5.50;;
76640;SDS011;65538;50.798;6.064;2023-10-08T13:28:22;14.52;;;4.72;;
76640;SDS011;65538;50.798;6.064;2023-10-08T13:30:54;14.02;;;6.10;;
76640;SDS011;65538;50.798;6.064;2023-10-08T13:33:22;11.95;;;5.80;;
76640;SDS011;65538;50.798;6.064;2023-10-08T13:38:18;16.48;;;5.00;;
76640;SDS011;65538;50.798;6.064;2023-10-08T13:40:45;15.65;;;5.85;;
76640;SDS011;65538;50.798;6.064;2023-10-08T13:43:30;16.60;;;5.95;;
76640;SDS011;65538;50.798;6.064;2023-10-08T13:46:02;14.43;;;5.20;;
76640;SDS011;65538;50.798;6.064;2023-10-08T13:48:30;14.07;;;5.07;;
76640;SDS011;65538;50.798;6.064;2023-10-08T13:50:57;10.82;;;4.53;;
76640;SDS011;65538;50.798;6.064;2023-10-08T13:53:25;14.95;;;4.90;;
76640;SDS011;65538;50.798;6.064;2023-10-08T13:55:54;19.02;;;5.70;;
76640;SDS011;65538;50.798;6.064;2023-10-08T13:58:20;11.60;;;4.70;;
76640;SDS011;65538;50.798;6.064;2023-10-08T14:00:47;17.58;;;5.70;;
76640;SDS011;65538;50.798;6.064;2023-10-08T14:03:15;14.20;;;5.78;;
76640;SDS011;65538;50.798;6.064;2023-10-08T14:05:46;16.50;;;3.90;;
76640;SDS011;65538;50.798;6.064;2023-10-08T14:08:15;13.85;;;4.68;;
76640;SDS011;65538;50.798;6.064;2023-10-08T14:10:40;15.15;;;5.18;;
76640;SDS011;65538;50.798;6.064;2023-10-08T14:13:08;15.68;;;5.07;;
76640;SDS011;65538;50.798;6.064;2023-10-08T14:15:39;12.13;;;4.95;;
76640;SDS011;65538;50.798;6.064;2023-10-08T14:18:09;14.70;;;4.78;;
76640;SDS011;65538;50.798;6.064;2023-10-08T14:20:47;13.35;;;5.28;;
76640;SDS011;65538;50.798;6.064;2023-10-08T14:23:18;14.65;;;5.47;;
76640;SDS011;65538;50.798;6.064;2023-10-08T14:25:47;17.98;;;5.38;;
76640;SDS011;65538;50.798;6.064;2023-10-08T14:28:18;14.90;;;5.63;;
76640;SDS011;65538;50.798;6.064;2023-10-08T14:31:07;12.73;;;5.15;;
76640;SDS011;65538;50.798;6.064;2023-10-08T14:33:35;13.70;;;5.22;;
76640;SDS011;65538;50.798;6.064;2023-10-08T14:36:11;12.73;;;4.93;;
76640;SDS011;65538;50.798;6.064;2023-10-08T14:38:55;14.70;;;5.05;;
76640;SDS011;65538;50.798;6.064;2023-10-08T14:41:39;10.25;;;4.47;;
76640;SDS011;65538;50.798;6.064;2023-10-08T14:44:23;9.93;;;5.30;;
76640;SDS011;65538;50.798;6.064;2023-10-08T14:46:49;11.13;;;5.10;;
76640;SDS011;65538;50.798;6.064;2023-10-08T14:49:19;11.80;;;4.75;;
76640;SDS011;65538;50.798;6.064;2023-10-08T14:51:47;12.32;;;5.15;;
76640;SDS011;65538;50.798;6.064;2023-10-08T14:54:14;12.73;;;4.78;;
76640;SDS011;65538;50.798;6.064;2023-10-08T14:56:39;16.17;;;5.75;;
76640;SDS011;65538;50.798;6.064;2023-10-08T14:59:04;12.77;;;5.17;;
76640;SDS011;65538;50.798;6.064;2023-10-08T15:01:30;13.82;;;4.72;;
76640;SDS011;65538;50.798;6.064;2023-10-08T15:03:58;16.02;;;4.85;;
76640;SDS011;65538;50.798;6.064;2023-10-08T15:06:23;12.15;;;4.68;;
76640;SDS011;65538;50.798;6.064;2023-10-08T15:08:49;12.68;;;5.00;;
76640;SDS011;65538;50.798;6.064;2023-10-08T15:11:14;9.18;;;4.60;;
76640;SDS011;65538;50.798;6.064;2023-10-08T15:13:41;15.68;;;4.30;;
76640;SDS011;65538;50.798;6.064;2023-10-08T15:16:14;12.55;;;4.88;;
76640;SDS011;65538;50.798;6.064;2023-10-08T15:18:40;13.52;;;5.38;;
76640;SDS011;65538;50.798;6.064;2023-10-08T15:21:08;11.93;;;5.22;;
76640;SDS011;65538;50.798;6.064;2023-10-08T15:23:33;16.63;;;5.25;;
76640;SDS011;65538;50.798;6.064;2023-10-08T15:25:58;15.75;;;4.53;;
76640;SDS011;65538;50.798;6.064;2023-10-08T15:28:24;12.67;;;4.53;;
76640;SDS011;65538;50.798;6.064;2023-10-08T15:30:49;11.70;;;4.80;;
76640;SDS011;65538;50.798;6.064;2023-10-08T15:33:18;10.73;;;4.88;;
76640;SDS011;65538;50.798;6.064;2023-10-08T15:35:43;11.35;;;4.53;;
76640;SDS011;65538;50.798;6.064;2023-10-08T15:38:44;11.73;;;5.22;;
76640;SDS011;65538;50.798;6.064;2023-10-08T15:41:09;13.20;;;4.83;;
76640;SDS011;65538;50.798;6.064;2023-10-08T15:43:38;12.35;;;5.10;;
76640;SDS011;65538;50.798;6.064;2023-10-08T15:46:04;14.00;;;4.90;;
76640;SDS011;65538;50.798;6.064;2023-10-08T15:48:30;9.27;;;4.80;;
76640;SDS011;65538;50.798;6.064;2023-10-08T15:50:55;12.40;;;4.90;;
76640;SDS011;65538;50.798;6.064;2023-10-08T15:53:20;7.73;;;4.17;;
76640;SDS011;65538;50.798;6.064;2023-10-08T15:55:46;10.57;;;5.23;;
76640;SDS011;65538;50.798;6.064;2023-10-08T15:58:12;8.25;;;4.63;;
76640;SDS011;65538;50.798;6.064;2023-10-08T16:00:37;14.32;;;5.15;;
76640;SDS011;65538;50.798;6.064;2023-10-08T16:03:02;12.37;;;4.87;;
76640;SDS011;65538;50.798;6.064;2023-10-08T16:05:29;12.73;;;5.50;;
76640;SDS011;65538;50.798;6.064;2023-10-08T16:07:55;16.10;;;6.30;;
76640;SDS011;65538;50.798;6.064;2023-10-08T16:10:23;12.23;;;5.05;;
76640;SDS011;65538;50.798;6.064;2023-10-08T16:12:49;17.67;;;5.47;;
76640;SDS011;65538;50.798;6.064;2023-10-08T16:15:14;14.65;;;5.55;;
76640;SDS011;65538;50.798;6.064;2023-10-08T16:17:40;15.43;;;5.77;;
76640;SDS011;65538;50.798;6.064;2023-10-08T16:22:43;18.20;;;5.88;;
76640;SDS011;65538;50.798;6.064;2023-10-08T16:25:13;13.48;;;5.78;;
76640;SDS011;65538;50.798;6.064;2023-10-08T16:27:40;13.50;;;5.45;;
76640;SDS011;65538;50.798;6.064;2023-10-08T16:30:09;11.52;;;5.03;;
76640;SDS011;65538;50.798;6.064;2023-10-08T16:32:36;13.25;;;5.10;;
76640;SDS011;65538;50.798;6.064;2023-10-08T16:35:02;12.10;;;6.03;;
76640;SDS011;65538;50.798;6.064;2023-10-08T16:37:28;15.32;;;5.90;;
76640;SDS011;65538;50.798;6.064;2023-10-08T16:39:54;13.03;;;5.40;;
76640;SDS011;65538;50.798;6.064;2023-10-08T16:42:19;12.60;;;5.50;;
76640;SDS011;65538;50.798;6.064;2023-10-08T16:44:44;16.10;;;5.93;;
76640;SDS011;65538;50.798;6.064;2023-10-08T16:47:10;13.95;;;5.82;;
76640;SDS011;65538;50.798;6.064;2023-10-08T16:49:36;13.00;;;6.00;;
76640;SDS011;65538;50.798;6.064;2023-10-08T16:52:02;15.20;;;7.10;;
76640;SDS011;65538;50.798;6.064;2023-10-08T16:54:28;13.80;;;6.60;;
76640;SDS011;65538;50.798;6.064;2023-10-08T16:56:54;11.63;;;5.80;;
76640;SDS011;65538;50.798;6.064;2023-10-08T16:59:20;13.13;;;5.60;;
76640;SDS011;65538;50.798;6.064;2023-10-08T17:01:45;13.40;;;5.80;;
76640;SDS011;65538;50.798;6.064;2023-10-08T17:04:10;14.90;;;6.65;;
76640;SDS011;65538;50.798;6.064;2023-10-08T17:06:37;13.43;;;6.28;;
76640;SDS011;65538;50.798;6.064;2023-10-08T17:09:02;18.23;;;7.47;;